Time;durP1;ratioP1;P1;durP2;ratioP2;P2;SDS_P1;SDS_P2;PMS_P1;PMS_P2;Temp;Humidity;BMP_temperature;BMP_pressure;BME280_temperature;BME280_humidity;BME280_pressure;Samples;Min_cycle;Max_cycle;Signal;HPM_P1;HPM_P2
2022/07/31 00:00:23;;;;;;;2.70;1.48;;;27.40;58.80;;;;;;6338830;22;19999;-79
2022/07/31 00:02:49;;;;;;;2.05;1.40;;;27.50;59.20;;;;;;6338142;22;20098;-77
2022/07/31 00:05:15;;;;;;;2.20;1.40;;;27.40;59.10;;;;;;6338726;22;20036;-76
2022/07/31 00:07:41;;;;;;;3.88;1.30;;;27.40;59.20;;;;;;6338971;22;19998;-77
2022/07/31 00:10:08;;;;;;;1.50;1.40;;;27.40;59.20;;;;;;6338970;22;20409;-78
2022/07/31 00:12:34;;;;;;;1.88;1.40;;;27.40;59.30;;;;;;6338755;22;19995;-78
2022/07/31 00:15:01;;;;;;;2.53;1.38;;;27.40;59.50;;;;;;6337984;22;20348;-77
2022/07/31 00:17:27;;;;;;;2.80;1.48;;;27.30;59.60;;;;;;6338421;22;20037;-77
2022/07/31 00:19:53;;;;;;;2.35;1.27;;;27.30;59.80;;;;;;6338474;22;20006;-78
2022/07/31 00:22:19;;;;;;;2.53;1.40;;;27.30;60.00;;;;;;6338103;22;20010;-77
2022/07/31 00:24:44;;;;;;;2.97;1.48;;;27.20;60.10;;;;;;6336648;22;20007;-77
2022/07/31 00:27:10;;;;;;;1.63;1.20;;;27.20;60.40;;;;;;6336816;22;20004;-77
2022/07/31 00:29:36;;;;;;;3.30;1.33;;;27.10;60.50;;;;;;6338318;22;20499;-77
2022/07/31 00:32:03;;;;;;;1.60;1.23;;;27.10;60.60;;;;;;6338159;22;20021;-76
2022/07/31 00:34:28;;;;;;;2.17;1.35;;;27.10;60.70;;;;;;6340388;22;20003;-77
2022/07/31 00:36:54;;;;;;;2.30;1.05;;;27.10;60.80;;;;;;6339815;22;20003;-77
2022/07/31 00:39:20;;;;;;;1.75;1.48;;;27.00;60.80;;;;;;6339984;22;20040;-77
2022/07/31 00:41:49;;;;;;;2.33;1.67;;;26.90;61.80;;;;;;6339831;22;20077;-77
2022/07/31 00:44:15;;;;;;;1.67;1.13;;;26.80;61.70;;;;;;6339833;22;20375;-77
2022/07/31 00:46:41;;;;;;;3.40;1.52;;;26.80;61.50;;;;;;6340010;22;20005;-77
2022/07/31 00:49:11;;;;;;;1.95;1.33;;;26.80;61.90;;;;;;6339770;22;19999;-76
2022/07/31 00:51:40;;;;;;;1.58;1.25;;;26.80;62.00;;;;;;6339449;22;20085;-77
2022/07/31 00:54:07;;;;;;;2.38;1.55;;;26.80;61.90;;;;;;6340184;22;20005;-77
2022/07/31 00:56:33;;;;;;;2.20;1.50;;;26.90;62.30;;;;;;6340538;22;20077;-77
2022/07/31 00:58:59;;;;;;;2.67;1.30;;;26.90;62.30;;;;;;6340092;22;19995;-76
2022/07/31 01:01:25;;;;;;;2.50;1.60;;;26.90;62.20;;;;;;6339491;22;20100;-77
2022/07/31 01:03:52;;;;;;;2.58;1.55;;;26.90;62.20;;;;;;6340622;22;19995;-77
2022/07/31 01:06:18;;;;;;;2.00;1.45;;;26.90;62.10;;;;;;6339744;22;20013;-77
2022/07/31 01:08:43;;;;;;;3.05;1.58;;;26.90;62.10;;;;;;6339790;22;20026;-78
2022/07/31 01:11:22;;;;;;;1.92;1.45;;;26.90;62.10;;;;;;6339872;22;20413;-78
2022/07/31 01:13:55;;;;;;;1.77;1.42;;;26.80;62.20;;;;;;6339784;22;19998;-78
2022/07/31 01:16:24;;;;;;;1.85;1.42;;;26.90;62.50;;;;;;6340310;22;20011;-78
2022/07/31 01:18:51;;;;;;;1.60;1.38;;;26.80;62.50;;;;;;6312610;22;20333;-78
2022/07/31 01:21:34;;;;;;;2.30;1.40;;;26.80;62.70;;;;;;6340312;22;19999;-77
2022/07/31 01:24:10;;;;;;;1.73;1.60;;;26.80;63.00;;;;;;6340278;22;20082;-75
2022/07/31 01:26:56;;;;;;;1.77;1.55;;;26.70;63.10;;;;;;6339548;22;19995;-76
2022/07/31 01:29:28;;;;;;;1.92;1.50;;;26.70;63.30;;;;;;6339991;22;19995;-75
2022/07/31 01:32:09;;;;;;;2.65;1.90;;;26.70;63.50;;;;;;6339691;22;19998;-75
2022/07/31 01:34:44;;;;;;;1.40;1.30;;;26.70;63.60;;;;;;6340135;22;20010;-75
2022/07/31 01:37:15;;;;;;;2.40;1.67;;;26.70;63.70;;;;;;6311569;22;20010;-79
2022/07/31 01:39:49;;;;;;;1.83;1.60;;;26.60;63.80;;;;;;6339464;22;20083;-79
2022/07/31 01:42:19;;;;;;;7.13;1.92;;;26.60;63.90;;;;;;6311739;22;20315;-80
2022/07/31 01:44:50;;;;;;;2.25;1.52;;;26.50;64.10;;;;;;6339532;22;20440;-79
2022/07/31 01:47:19;;;;;;;1.50;1.40;;;26.60;64.50;;;;;;6339406;22;19995;-79
2022/07/31 01:49:47;;;;;;;2.53;1.60;;;26.60;64.80;;;;;;6339825;22;20005;-78
2022/07/31 01:52:14;;;;;;;1.58;1.48;;;26.60;64.90;;;;;;6339496;22;20492;-78
2022/07/31 01:54:42;;;;;;;2.80;1.58;;;26.60;64.70;;;;;;6311509;22;20034;-78
2022/07/31 01:57:09;;;;;;;2.03;1.65;;;26.60;64.80;;;;;;6339690;22;20026;-80
2022/07/31 01:59:37;;;;;;;2.90;2.00;;;26.60;64.80;;;;;;6339305;22;20369;-80
2022/07/31 02:02:03;;;;;;;2.10;1.65;;;26.40;65.40;;;;;;6338844;22;20011;-80
2022/07/31 02:04:30;;;;;;;3.45;2.17;;;26.40;65.30;;;;;;6339139;22;20003;-80
2022/07/31 02:06:58;;;;;;;2.63;2.20;;;26.30;65.80;;;;;;6338923;22;20000;-80
2022/07/31 02:09:25;;;;;;;2.30;1.90;;;26.20;66.00;;;;;;6340090;22;19999;-81
2022/07/31 02:11:52;;;;;;;1.83;1.63;;;26.20;65.90;;;;;;6339043;22;20007;-81
2022/07/31 02:14:19;;;;;;;3.72;2.13;;;26.20;66.00;;;;;;6339721;22;20003;-81
2022/07/31 02:16:48;;;;;;;2.53;1.77;;;26.30;66.30;;;;;;6311339;22;20006;-81
2022/07/31 02:19:15;;;;;;;3.78;1.80;;;26.30;66.50;;;;;;6339289;22;20083;-81
2022/07/31 02:21:41;;;;;;;2.05;1.40;;;26.30;66.40;;;;;;6312025;22;20322;-81
2022/07/31 02:24:08;;;;;;;4.38;1.70;;;26.40;66.50;;;;;;6338701;22;19998;-81
2022/07/31 02:26:35;;;;;;;4.60;1.80;;;26.40;66.60;;;;;;6339316;22;20425;-81
2022/07/31 02:29:02;;;;;;;2.22;1.70;;;26.40;66.70;;;;;;6338975;22;20341;-81
2022/07/31 02:31:31;;;;;;;1.90;1.60;;;26.50;66.50;;;;;;6339489;22;20005;-80
2022/07/31 02:33:57;;;;;;;2.38;1.77;;;26.40;66.40;;;;;;6339157;22;20065;-80
2022/07/31 02:36:24;;;;;;;2.45;1.80;;;26.40;66.40;;;;;;6326414;22;19999;-80
2022/07/31 02:38:52;;;;;;;2.30;1.95;;;26.40;66.60;;;;;;6311473;22;20010;-79
2022/07/31 02:41:20;;;;;;;1.98;1.77;;;26.40;66.60;;;;;;6339592;22;19999;-77
2022/07/31 02:43:46;;;;;;;2.80;2.17;;;26.20;66.80;;;;;;6339394;22;20448;-77
2022/07/31 02:46:14;;;;;;;2.75;1.85;;;26.20;66.90;;;;;;6338890;22;20003;-79
2022/07/31 02:48:41;;;;;;;2.85;1.95;;;26.30;67.10;;;;;;6339379;22;20317;-79
2022/07/31 02:51:08;;;;;;;2.53;1.98;;;26.30;67.20;;;;;;6339503;22;20002;-79
2022/07/31 02:53:34;;;;;;;3.50;2.53;;;26.30;67.20;;;;;;6339459;22;20353;-79
2022/07/31 02:56:00;;;;;;;3.15;2.25;;;26.40;67.20;;;;;;6339028;22;19999;-79
2022/07/31 02:58:26;;;;;;;3.33;2.50;;;26.30;67.00;;;;;;6338812;22;19999;-79
2022/07/31 03:01:00;;;;;;;3.15;2.70;;;26.30;67.10;;;;;;6338719;22;20009;-80
2022/07/31 03:03:26;;;;;;;2.97;2.53;;;26.30;67.20;;;;;;6339138;22;20006;-79
2022/07/31 03:05:51;;;;;;;2.67;2.30;;;26.20;67.10;;;;;;6311128;22;20448;-79
2022/07/31 03:08:17;;;;;;;3.53;2.10;;;26.20;67.20;;;;;;6338469;22;19999;-79
2022/07/31 03:10:43;;;;;;;2.53;2.25;;;26.20;67.50;;;;;;6337773;22;20440;-80
2022/07/31 03:13:10;;;;;;;3.70;3.10;;;26.20;67.60;;;;;;6338788;22;19995;-80
2022/07/31 03:15:38;;;;;;;3.30;2.75;;;26.10;67.80;;;;;;6339313;22;20006;-79
2022/07/31 03:18:05;;;;;;;3.20;2.22;;;26.10;67.70;;;;;;6338942;22;20003;-79
2022/07/31 03:20:32;;;;;;;4.97;3.55;;;26.10;67.80;;;;;;6338778;22;19998;-78
2022/07/31 03:23:00;;;;;;;4.20;3.25;;;26.10;68.00;;;;;;6338587;22;20002;-79
2022/07/31 03:25:26;;;;;;;4.28;3.05;;;26.00;68.00;;;;;;6338833;22;19999;-79
2022/07/31 03:27:52;;;;;;;5.60;3.88;;;26.00;68.10;;;;;;6339231;22;19999;-79
2022/07/31 03:30:23;;;;;;;3.70;3.20;;;26.00;68.30;;;;;;6339214;22;20098;-79
2022/07/31 03:32:50;;;;;;;4.65;3.70;;;25.90;68.40;;;;;;6338758;22;20074;-79
2022/07/31 03:35:17;;;;;;;4.47;3.38;;;25.80;68.40;;;;;;6338604;22;19998;-79
2022/07/31 03:37:43;;;;;;;3.72;3.42;;;25.80;68.70;;;;;;6337181;22;20018;-79
2022/07/31 03:40:09;;;;;;;6.75;3.60;;;25.80;68.80;;;;;;6338704;22;20028;-79
2022/07/31 03:42:35;;;;;;;5.90;4.65;;;25.80;69.10;;;;;;6338504;22;20006;-79
2022/07/31 03:45:03;;;;;;;5.88;4.95;;;25.70;69.80;;;;;;6338715;22;20480;-79
2022/07/31 03:47:29;;;;;;;6.63;5.10;;;25.70;69.90;;;;;;6338495;22;19999;-79
2022/07/31 03:49:55;;;;;;;5.10;3.75;;;25.60;70.20;;;;;;6338925;22;20432;-78
2022/07/31 03:52:22;;;;;;;5.47;3.72;;;25.60;70.00;;;;;;6338419;22;19999;-80
2022/07/31 03:54:48;;;;;;;5.10;3.80;;;25.50;70.00;;;;;;6338877;22;20002;-79
2022/07/31 03:57:15;;;;;;;7.65;3.67;;;25.50;70.00;;;;;;6338618;22;20282;-80
2022/07/31 03:59:42;;;;;;;6.07;4.60;;;25.50;70.30;;;;;;6339116;22;20364;-80
2022/07/31 04:02:09;;;;;;;5.72;3.78;;;25.50;70.30;;;;;;6338580;22;20411;-80
2022/07/31 04:04:36;;;;;;;6.05;3.88;;;25.50;70.20;;;;;;6337935;22;20013;-80
2022/07/31 04:07:03;;;;;;;3.90;3.13;;;25.60;70.20;;;;;;6338695;22;19999;-79
2022/07/31 04:09:29;;;;;;;4.28;3.35;;;25.60;70.20;;;;;;6338018;22;20033;-78
2022/07/31 04:11:55;;;;;;;3.97;3.28;;;25.60;69.70;;;;;;6336975;22;20046;-79
2022/07/31 04:14:20;;;;;;;3.30;2.80;;;25.70;70.30;;;;;;6337568;22;20013;-80
2022/07/31 04:16:46;;;;;;;4.03;3.20;;;25.70;70.10;;;;;;6339265;22;19987;-79
2022/07/31 04:19:12;;;;;;;4.55;3.70;;;25.70;70.10;;;;;;6336489;22;20052;-78
2022/07/31 04:21:39;;;;;;;4.38;3.53;;;25.70;70.10;;;;;;6338173;22;20074;-78
2022/07/31 04:24:07;;;;;;;5.50;4.03;;;25.70;70.20;;;;;;6337927;22;20320;-78
2022/07/31 04:26:33;;;;;;;4.82;3.60;;;25.70;70.30;;;;;;6338779;22;20136;-79
2022/07/31 04:28:59;;;;;;;5.15;3.83;;;25.80;70.40;;;;;;6338812;22;20434;-80
2022/07/31 04:31:24;;;;;;;4.13;3.42;;;25.80;70.50;;;;;;6338456;22;19999;-79
2022/07/31 04:33:50;;;;;;;4.45;3.80;;;25.80;70.60;;;;;;6338094;22;19999;-79
2022/07/31 04:36:16;;;;;;;5.38;3.85;;;25.80;70.60;;;;;;6338317;22;19998;-79
2022/07/31 04:38:44;;;;;;;6.00;5.20;;;25.80;70.60;;;;;;6338100;22;20070;-79
2022/07/31 04:41:10;;;;;;;5.72;3.00;;;25.80;70.80;;;;;;6310868;22;20374;-79
2022/07/31 04:43:36;;;;;;;5.70;3.22;;;25.70;70.50;;;;;;6338468;22;20026;-79
2022/07/31 04:46:02;;;;;;;3.25;2.95;;;25.70;70.40;;;;;;6338260;22;19999;-79
2022/07/31 04:48:28;;;;;;;2.33;2.08;;;25.70;70.10;;;;;;6337960;22;19995;-78
2022/07/31 04:50:54;;;;;;;3.83;2.35;;;25.70;70.10;;;;;;6338748;22;19999;-78
2022/07/31 04:53:19;;;;;;;3.53;2.17;;;25.70;70.00;;;;;;6338537;22;20037;-79
2022/07/31 04:56:32;;;;;;;3.92;2.08;;;25.80;69.90;;;;;;6338481;22;20049;-79
2022/07/31 04:58:32;;;;;;;2.05;1.85;;;25.80;69.90;;;;;;6338199;22;20332;-79
2022/07/31 05:00:58;;;;;;;2.13;1.88;;;25.80;69.70;;;;;;6337659;22;20060;-79
2022/07/31 05:03:23;;;;;;;3.85;1.80;;;25.80;69.60;;;;;;6336720;22;20359;-79
2022/07/31 05:05:49;;;;;;;2.58;1.95;;;25.80;69.50;;;;;;6338269;22;20624;-77
2022/07/31 05:08:15;;;;;;;2.58;2.00;;;25.80;69.30;;;;;;6337383;22;20317;-77
2022/07/31 05:13:25;;;;;;;1.95;1.80;;;25.90;69.10;;;;;;6336348;22;20006;-75
2022/07/31 05:15:50;;;;;;;2.95;1.88;;;25.90;69.20;;;;;;6337233;22;20007;-77
2022/07/31 05:18:16;;;;;;;2.03;1.55;;;25.90;69.00;;;;;;6337748;22;19999;-79
2022/07/31 05:20:42;;;;;;;3.25;1.92;;;25.90;68.80;;;;;;6341103;22;19999;-78
2022/07/31 05:23:07;;;;;;;1.80;1.48;;;25.90;68.70;;;;;;6340612;22;20010;-77
2022/07/31 05:25:58;;;;;;;1.45;1.20;;;25.90;68.60;;;;;;6331108;22;20244;-75
2022/07/31 05:28:32;;;;;;;4.78;1.48;;;26.00;68.80;;;;;;6298165;22;20304;-74
2022/07/31 05:30:58;;;;;;;2.03;1.63;;;26.00;68.70;;;;;;6338138;22;20013;-73
2022/07/31 05:33:24;;;;;;;2.25;1.55;;;26.10;69.10;;;;;;6338638;22;20300;-74
2022/07/31 05:35:50;;;;;;;2.28;1.40;;;26.10;68.90;;;;;;6339853;22;20424;-74
2022/07/31 05:38:16;;;;;;;1.75;1.63;;;26.20;68.80;;;;;;6338738;22;20026;-76
2022/07/31 05:40:42;;;;;;;4.00;1.80;;;26.20;68.80;;;;;;6337267;22;20003;-73
2022/07/31 05:43:09;;;;;;;2.95;2.08;;;26.20;68.60;;;;;;6338824;22;20018;-74
2022/07/31 05:45:35;;;;;;;4.53;1.52;;;26.20;68.40;;;;;;6311281;22;20314;-74
2022/07/31 05:48:01;;;;;;;16.40;3.70;;;26.30;68.50;;;;;;6338790;22;20025;-72
2022/07/31 05:50:27;;;;;;;3.20;1.63;;;26.30;68.70;;;;;;6339630;22;20087;-78
2022/07/31 05:52:53;;;;;;;2.28;1.77;;;26.30;68.70;;;;;;6337833;22;20007;-73
2022/07/31 05:55:20;;;;;;;2.08;1.80;;;26.30;68.50;;;;;;6338146;22;20409;-79
2022/07/31 05:57:45;;;;;;;3.83;1.70;;;26.40;68.40;;;;;;6310156;22;20002;-79
2022/07/31 06:00:12;;;;;;;1.92;1.75;;;26.40;68.30;;;;;;6338512;22;20313;-78
2022/07/31 06:02:38;;;;;;;3.53;1.50;;;26.40;68.20;;;;;;6337795;22;19999;-79
2022/07/31 06:05:04;;;;;;;6.10;2.25;;;26.40;68.30;;;;;;6338132;22;20014;-80
2022/07/31 06:07:30;;;;;;;2.40;1.60;;;26.40;68.30;;;;;;6310779;22;19999;-79
2022/07/31 06:09:55;;;;;;;2.05;1.83;;;26.40;68.20;;;;;;6339200;22;20075;-79
2022/07/31 06:12:21;;;;;;;1.45;1.25;;;26.40;68.30;;;;;;6340043;22;19999;-79
2022/07/31 06:14:47;;;;;;;3.60;2.00;;;26.40;68.30;;;;;;6339533;22;20034;-82
2022/07/31 06:17:13;;;;;;;2.65;2.30;;;26.40;68.40;;;;;;6339888;22;20003;-80
2022/07/31 06:19:38;;;;;;;3.55;2.00;;;26.40;68.50;;;;;;6311434;22;20003;-81
2022/07/31 06:22:04;;;;;;;176.38;16.52;;;26.40;68.40;;;;;;6339489;22;20332;-81
2022/07/31 06:24:32;;;;;;;26.92;4.25;;;26.50;68.70;;;;;;6339605;22;20002;-80
2022/07/31 06:26:59;;;;;;;1.92;1.70;;;26.50;69.20;;;;;;6351470;22;20309;-81
2022/07/31 06:29:26;;;;;;;1.95;1.75;;;26.50;68.60;;;;;;6370560;22;20001;-82
2022/07/31 06:32:12;;;;;;;1.90;1.80;;;26.60;68.60;;;;;;6370519;22;20002;-80
2022/07/31 06:34:38;;;;;;;3.72;2.00;;;26.60;68.80;;;;;;6368437;22;20491;-80
2022/07/31 06:37:04;;;;;;;1.40;1.30;;;26.60;68.50;;;;;;6370763;22;20002;-80
2022/07/31 06:39:29;;;;;;;3.47;1.65;;;26.60;68.40;;;;;;6369452;22;20459;-80
2022/07/31 06:44:41;;;;;;;2.08;1.52;;;26.60;68.00;;;;;;6370485;22;20010;-80
2022/07/31 06:47:06;;;;;;;2.58;1.60;;;26.60;67.90;;;;;;6342667;22;19998;-80
2022/07/31 06:49:32;;;;;;;2.55;1.67;;;26.70;67.70;;;;;;6371102;22;20099;-80
2022/07/31 06:51:57;;;;;;;1.95;1.20;;;26.70;67.40;;;;;;6370183;22;19998;-80
2022/07/31 06:54:23;;;;;;;2.05;1.25;;;26.70;67.30;;;;;;6370686;22;19999;-80
2022/07/31 06:56:49;;;;;;;3.33;1.55;;;26.80;67.50;;;;;;6371491;22;20069;-80
2022/07/31 06:59:15;;;;;;;1.65;1.10;;;26.80;67.20;;;;;;6371253;22;20356;-80
2022/07/31 07:01:40;;;;;;;1.35;1.20;;;26.80;67.10;;;;;;6342918;22;20022;-80
2022/07/31 07:04:06;;;;;;;1.42;1.00;;;26.90;67.00;;;;;;6370339;22;19995;-77
2022/07/31 07:06:31;;;;;;;2.10;1.20;;;26.90;67.20;;;;;;6369380;22;20673;-80
2022/07/31 07:08:57;;;;;;;1.27;1.17;;;27.00;67.30;;;;;;6369973;22;20005;-80
2022/07/31 07:11:23;;;;;;;1.55;1.30;;;27.00;67.00;;;;;;6370511;22;19998;-80
2022/07/31 07:13:49;;;;;;;1.73;1.30;;;27.10;67.00;;;;;;6370418;22;20327;-80
2022/07/31 07:16:15;;;;;;;2.35;1.30;;;27.10;67.00;;;;;;6370143;22;20483;-80
2022/07/31 07:18:43;;;;;;;4.10;1.20;;;27.20;67.00;;;;;;6369668;22;19998;-80
2022/07/31 07:21:09;;;;;;;3.05;1.30;;;27.20;66.80;;;;;;6370426;22;20002;-79
2022/07/31 07:23:34;;;;;;;2.88;1.58;;;27.30;66.70;;;;;;6370943;22;20024;-80
2022/07/31 07:26:00;;;;;;;1.60;1.20;;;27.30;66.50;;;;;;6370544;22;20407;-80
2022/07/31 07:28:26;;;;;;;1.17;1.08;;;27.30;66.30;;;;;;6370631;22;20006;-80
2022/07/31 07:30:51;;;;;;;1.77;1.30;;;27.30;66.20;;;;;;6370085;22;20067;-80
2022/07/31 07:33:17;;;;;;;1.30;1.10;;;27.40;66.20;;;;;;6370935;22;19994;-80
2022/07/31 07:35:43;;;;;;;4.97;1.40;;;27.40;65.90;;;;;;6342526;22;20010;-80
2022/07/31 07:38:08;;;;;;;1.52;1.17;;;27.50;65.90;;;;;;6370435;22;20034;-80
2022/07/31 07:40:35;;;;;;;1.52;1.20;;;27.50;65.70;;;;;;6370279;22;20022;-80
2022/07/31 07:43:01;;;;;;;1.45;1.17;;;27.60;65.60;;;;;;6370717;22;20400;-79
2022/07/31 07:45:27;;;;;;;1.73;1.30;;;27.70;65.70;;;;;;6370639;22;20037;-80
2022/07/31 07:47:53;;;;;;;1.42;1.30;;;27.70;65.50;;;;;;6370854;22;20002;-80
2022/07/31 07:50:19;;;;;;;2.08;1.40;;;27.80;65.40;;;;;;6370410;22;20005;-80
2022/07/31 07:52:45;;;;;;;1.40;1.30;;;27.80;65.40;;;;;;6370328;22;19998;-80
2022/07/31 07:55:11;;;;;;;1.20;1.10;;;27.90;65.50;;;;;;6370399;22;20069;-80
2022/07/31 07:57:37;;;;;;;0.95;0.90;;;28.00;65.60;;;;;;6370494;22;19999;-80
2022/07/31 08:00:06;;;;;;;1.30;1.20;;;28.00;65.90;;;;;;6370808;22;20424;-80
2022/07/31 08:02:32;;;;;;;2.10;1.48;;;28.10;66.10;;;;;;6342237;22;20273;-80
2022/07/31 08:04:59;;;;;;;2.53;1.50;;;28.30;66.30;;;;;;6370134;22;20369;-80
2022/07/31 08:07:34;;;;;;;1.73;1.52;;;28.30;66.00;;;;;;6370389;22;20052;-80
2022/07/31 08:10:00;;;;;;;1.48;1.25;;;28.30;65.30;;;;;;6370098;22;20084;-79
2022/07/31 08:12:26;;;;;;;1.85;1.40;;;28.30;65.30;;;;;;6370505;22;20002;-80
2022/07/31 08:14:52;;;;;;;4.35;1.98;;;28.30;65.20;;;;;;6369414;22;20077;-80
2022/07/31 08:17:19;;;;;;;1.95;1.33;;;28.30;64.90;;;;;;6370032;22;20320;-80
2022/07/31 08:19:45;;;;;;;9.23;5.88;;;28.30;64.90;;;;;;6370213;22;20006;-80
2022/07/31 08:22:11;;;;;;;4.35;2.60;;;28.40;65.10;;;;;;6370037;22;20055;-81
2022/07/31 08:24:37;;;;;;;2.42;1.50;;;28.50;65.50;;;;;;6369630;22;19998;-80
2022/07/31 08:29:47;;;;;;;2.45;1.27;;;28.60;65.30;;;;;;6370563;22;20022;-80
2022/07/31 08:32:13;;;;;;;1.40;1.27;;;28.80;65.20;;;;;;6370374;22;20006;-80
2022/07/31 08:34:39;;;;;;;1.73;1.23;;;28.80;65.00;;;;;;6369924;22;20088;-80
2022/07/31 08:37:05;;;;;;;2.17;1.30;;;28.90;64.70;;;;;;6369164;22;20006;-80
2022/07/31 08:39:35;;;;;;;1.77;1.20;;;28.90;64.10;;;;;;6370252;22;20332;-80
2022/07/31 08:42:08;;;;;;;2.05;1.13;;;29.00;63.70;;;;;;6369860;22;20030;-80
2022/07/31 08:44:38;;;;;;;1.13;1.00;;;29.10;63.60;;;;;;6369913;22;20427;-80
2022/07/31 08:47:10;;;;;;;;;;;29.10;63.60;;;;;;6370474;22;19998;-80
2022/07/31 08:50:00;;;;;;;1.52;1.10;;;29.20;63.60;;;;;;6369008;22;19898;-80
2022/07/31 08:52:26;;;;;;;;;;;29.30;63.40;;;;;;6356606;22;20328;-80
2022/07/31 08:54:53;;;;;;;2.45;1.30;;;29.30;62.80;;;;;;6371776;22;19905;-80
2022/07/31 08:57:19;;;;;;;2.85;1.40;;;29.40;62.60;;;;;;6371788;22;20006;-80
2022/07/31 08:59:47;;;;;;;2.60;1.30;;;29.40;62.20;;;;;;6371197;22;20081;-80
2022/07/31 09:02:14;;;;;;;1.65;1.55;;;29.40;62.10;;;;;;6370737;22;20443;-82
2022/07/31 09:04:40;;;;;;;8.55;1.42;;;29.40;62.30;;;;;;6371915;22;20009;-82
2022/07/31 09:07:09;;;;;;;5.80;1.30;;;29.50;62.20;;;;;;6371451;22;19998;-81
2022/07/31 09:09:35;;;;;;;1.98;1.40;;;29.60;62.50;;;;;;6372055;22;20001;-81
2022/07/31 09:12:00;;;;;;;29.20;5.63;;;29.70;62.00;;;;;;6371727;22;19994;-81
2022/07/31 09:14:33;;;;;;;9.45;3.38;;;29.80;62.70;;;;;;6371253;22;19998;-82
2022/07/31 09:17:01;;;;;;;3.70;2.05;;;29.80;63.80;;;;;;6371852;22;20370;-83
2022/07/31 09:19:37;;;;;;;7.85;2.70;;;29.70;63.60;;;;;;6343563;22;20079;-82
2022/07/31 09:22:02;;;;;;;6.20;2.17;;;29.80;64.30;;;;;;6371892;22;20403;-82
2022/07/31 09:24:31;;;;;;;2.75;1.60;;;29.90;64.10;;;;;;6342815;22;19999;-82
2022/07/31 09:27:08;;;;;;;3.28;1.23;;;30.00;64.70;;;;;;6370456;22;20090;-84
2022/07/31 09:29:40;;;;;;;1.30;1.13;;;30.00;63.70;;;;;;6371517;22;20006;-82
2022/07/31 09:32:12;;;;;;;3.08;1.30;;;30.10;63.80;;;;;;6371244;22;19998;-82
2022/07/31 09:34:39;;;;;;;2.13;1.27;;;30.20;63.70;;;;;;6370831;22;20008;-82
2022/07/31 09:37:17;;;;;;;2.00;1.50;;;30.30;63.20;;;;;;6369433;22;20012;-82
2022/07/31 09:39:54;;;;;;;2.10;1.50;;;30.40;63.50;;;;;;6371319;22;20013;-83
2022/07/31 09:42:20;;;;;;;1.30;1.10;;;30.40;63.80;;;;;;6371460;22;20041;-83
2022/07/31 09:44:48;;;;;;;2.33;1.25;;;30.50;63.40;;;;;;6371009;22;19998;-82
2022/07/31 09:47:31;;;;;;;2.08;1.50;;;30.60;63.90;;;;;;6342971;22;20014;-83
2022/07/31 09:50:02;;;;;;;2.70;1.35;;;30.60;64.00;;;;;;6370745;22;20002;-78
2022/07/31 09:52:30;;;;;;;2.35;1.23;;;30.70;63.80;;;;;;6371615;22;20021;-78
2022/07/31 09:55:14;;;;;;;3.35;1.38;;;30.80;63.60;;;;;;6371292;22;19999;-79
2022/07/31 09:57:54;;;;;;;1.38;1.27;;;30.90;63.50;;;;;;6370587;22;20332;-83
2022/07/31 10:00:21;;;;;;;1.63;1.45;;;31.00;63.00;;;;;;6370652;22;20069;-79
2022/07/31 10:02:48;;;;;;;3.83;2.15;;;31.10;62.90;;;;;;6371131;22;20052;-81
2022/07/31 10:05:17;;;;;;;2.13;1.30;;;31.10;62.70;;;;;;6370872;22;20324;-82
2022/07/31 10:07:45;;;;;;;3.53;1.48;;;31.10;63.00;;;;;;6371390;22;20003;-81
2022/07/31 10:10:12;;;;;;;2.53;1.35;;;31.20;62.60;;;;;;6370192;22;20005;-83
2022/07/31 10:12:41;;;;;;;2.03;1.60;;;31.40;62.60;;;;;;6371084;22;20022;-81
2022/07/31 10:15:10;;;;;;;3.00;1.92;;;31.60;62.50;;;;;;6371191;22;20026;-81
2022/07/31 10:17:42;;;;;;;2.80;1.50;;;31.80;62.00;;;;;;6370267;22;20002;-82
2022/07/31 10:20:13;;;;;;;1.27;1.17;;;31.90;61.50;;;;;;6370827;22;20002;-81
2022/07/31 10:22:45;;;;;;;1.95;1.55;;;32.10;60.80;;;;;;6370114;22;20003;-74
2022/07/31 10:25:23;;;;;;;1.75;1.48;;;32.20;60.30;;;;;;6369602;22;20006;-74
2022/07/31 10:27:49;;;;;;;2.22;1.48;;;32.20;60.50;;;;;;6369857;22;20085;-74
2022/07/31 10:30:14;;;;;;;1.88;1.52;;;32.20;60.20;;;;;;6369486;22;20514;-74
2022/07/31 10:32:41;;;;;;;3.58;1.55;;;32.30;58.80;;;;;;6341240;22;20416;-74
2022/07/31 10:35:07;;;;;;;1.55;1.10;;;32.30;60.50;;;;;;6369136;22;20006;-74
2022/07/31 10:37:39;;;;;;;2.25;1.10;;;32.40;60.00;;;;;;6369035;22;20347;-81
2022/07/31 10:40:22;;;;;;;1.90;1.30;;;32.50;59.10;;;;;;6370527;22;19998;-81
2022/07/31 10:43:00;;;;;;;1.70;1.40;;;32.70;58.50;;;;;;6370739;22;20022;-81
2022/07/31 10:45:28;;;;;;;4.93;2.30;;;32.80;59.30;;;;;;6370154;22;20010;-81
2022/07/31 10:47:55;;;;;;;4.90;3.78;;;32.90;58.50;;;;;;6370796;22;20078;-80
2022/07/31 10:50:24;;;;;;;2.67;2.40;;;33.00;61.30;;;;;;6370808;22;19995;-81
2022/07/31 10:52:51;;;;;;;7.65;2.60;;;33.10;57.80;;;;;;6341923;22;20065;-82
2022/07/31 10:55:28;;;;;;;11.27;8.88;;;33.00;58.30;;;;;;6374903;22;19999;-83
2022/07/31 10:58:18;;;;;;;;;;;;;;;;;;;;;
2022/07/31 11:00:51;;;;;;;2.50;1.88;;;33.30;60.00;;;;;;6375718;22;20026;-82
2022/07/31 11:03:21;;;;;;;20.45;18.58;;;33.50;62.10;;;;;;6349293;22;20003;-82
2022/07/31 11:05:57;;;;;;;2.83;2.17;;;33.70;60.30;;;;;;6376998;22;20007;-82
2022/07/31 11:08:24;;;;;;;5.97;2.60;;;34.00;59.40;;;;;;6374840;22;20006;-82
2022/07/31 11:10:54;;;;;;;4.40;4.00;;;34.10;60.80;;;;;;6372319;22;20018;-82
2022/07/31 11:13:22;;;;;;;2.13;1.92;;;34.20;59.80;;;;;;6376206;22;19998;-82
2022/07/31 11:15:59;;;;;;;2.33;2.03;;;34.40;59.50;;;;;;6347592;22;20033;-81
2022/07/31 11:18:25;;;;;;;3.03;2.10;;;34.50;61.80;;;;;;6373356;22;20002;-83
2022/07/31 11:21:07;;;;;;;1.30;1.13;;;34.70;58.70;;;;;;6369927;22;20013;-82
2022/07/31 11:23:42;;;;;;;1.58;1.10;;;34.90;56.80;;;;;;6370226;22;20305;-82
2022/07/31 11:26:08;;;;;;;1.75;1.30;;;35.10;54.60;;;;;;6341268;22;20105;-81
2022/07/31 11:28:37;;;;;;;1.20;1.10;;;35.20;53.60;;;;;;6369228;22;20036;-82
2022/07/31 11:31:05;;;;;;;1.67;1.10;;;35.50;52.70;;;;;;6369094;22;19995;-82
2022/07/31 11:33:41;;;;;;;1.42;1.13;;;35.60;51.70;;;;;;6369692;22;20427;-81
2022/07/31 11:36:19;;;;;;;1.45;1.02;;;35.90;49.20;;;;;;6369690;22;20138;-81
2022/07/31 11:38:50;;;;;;;1.30;1.20;;;36.10;48.80;;;;;;6366524;22;20087;-81
2022/07/31 11:41:17;;;;;;;1.33;1.23;;;36.40;49.30;;;;;;6368591;22;19998;-81
2022/07/31 11:43:48;;;;;;;2.15;1.05;;;36.70;49.00;;;;;;6364337;22;20002;-81
2022/07/31 11:46:40;;;;;;;1.10;1.00;;;37.10;47.30;;;;;;6367179;22;20017;-81
2022/07/31 11:49:06;;;;;;;1.52;1.00;;;37.40;44.40;;;;;;6362559;22;19998;-81
2022/07/31 11:51:35;;;;;;;2.42;1.85;;;37.80;45.10;;;;;;6367403;22;19999;-80
2022/07/31 11:54:01;;;;;;;;;;;38.10;44.50;;;;;;6367620;22;20006;-74
2022/07/31 11:56:27;;;;;;;2.22;1.08;;;38.30;44.60;;;;;;6339005;22;19898;-74
2022/07/31 11:58:57;;;;;;;1.92;1.50;;;38.60;44.90;;;;;;6366856;22;20044;-75
2022/07/31 12:01:27;;;;;;;1.40;1.27;;;38.80;44.30;;;;;;6366667;22;20002;-74
2022/07/31 12:03:54;;;;;;;4.47;1.17;;;39.00;44.60;;;;;;6366939;22;20323;-74
2022/07/31 12:06:20;;;;;;;2.40;1.08;;;39.20;45.00;;;;;;6338791;22;20003;-75
2022/07/31 12:08:49;;;;;;;5.38;1.30;;;39.30;45.10;;;;;;6366346;22;20484;-75
2022/07/31 12:11:17;;;;;;;3.10;1.38;;;39.50;44.70;;;;;;6366011;22;19998;-75
2022/07/31 12:13:47;;;;;;;3.17;1.35;;;39.70;44.60;;;;;;6366725;22;20339;-74
2022/07/31 12:16:13;;;;;;;2.88;1.30;;;39.80;44.20;;;;;;6366491;22;20014;-75
2022/07/31 12:18:46;;;;;;;1.77;1.30;;;39.90;44.00;;;;;;6366294;22;19999;-74
2022/07/31 12:21:12;;;;;;;1.02;0.90;;;40.00;43.10;;;;;;6366850;22;20034;-75
2022/07/31 12:23:46;;;;;;;1.27;0.90;;;40.00;43.30;;;;;;6366214;22;20370;-74
2022/07/31 12:26:25;;;;;;;2.00;1.20;;;40.20;43.10;;;;;;6366300;22;20648;-75
2022/07/31 12:29:00;;;;;;;1.25;1.10;;;40.20;42.30;;;;;;6369404;22;20003;-74
2022/07/31 12:31:26;;;;;;;3.47;1.10;;;40.30;42.40;;;;;;6370224;22;20003;-73
2022/07/31 12:33:58;;;;;;;1.33;0.80;;;40.30;41.10;;;;;;6370822;22;20301;-74
2022/07/31 12:36:24;;;;;;;2.70;1.20;;;40.40;41.90;;;;;;6371414;22;20077;-74
2022/07/31 12:39:01;;;;;;;3.20;1.17;;;40.40;42.80;;;;;;6370899;22;20029;-73
2022/07/31 12:41:28;;;;;;;1.35;1.20;;;40.40;42.20;;;;;;6371926;22;20161;-73
2022/07/31 12:43:54;;;;;;;1.58;1.20;;;40.50;42.40;;;;;;6371340;22;20010;-74
2022/07/31 12:46:21;;;;;;;2.22;1.10;;;40.50;42.50;;;;;;6371420;22;20445;-74
2022/07/31 12:48:47;;;;;;;1.77;1.00;;;40.50;42.40;;;;;;6370562;22;19995;-73
2022/07/31 12:51:13;;;;;;;2.50;1.20;;;40.50;41.80;;;;;;6371531;22;20001;-75
2022/07/31 12:53:38;;;;;;;1.42;1.05;;;40.50;41.70;;;;;;6370824;22;20006;-75
2022/07/31 12:56:09;;;;;;;1.63;1.30;;;40.50;42.00;;;;;;6371168;22;20006;-75
2022/07/31 12:58:35;;;;;;;3.55;1.00;;;40.50;42.10;;;;;;6370789;22;20003;-76
2022/07/31 13:01:00;;;;;;;1.15;0.90;;;40.60;42.20;;;;;;6370710;22;20009;-75